Time;durP1;ratioP1;P1;durP2;ratioP2;P2;SDS_P1;SDS_P2;PMS_P1;PMS_P2;Temp;Humidity;BMP_temperature;BMP_pressure;BME280_temperature;BME280_humidity;BME280_pressure;Samples;Min_cycle;Max_cycle;Signal;HPM_P1;HPM_P2
2024/02/17 00:01:08;;;;;;;18.92;10.45;;;;;;;;;;5069255;28;20048;-76
2024/02/17 00:03:34;;;;;;;19.17;12.48;;;;;;;;;;5055451;28;20055;-76
2024/02/17 00:06:01;;;;;;;18.20;10.85;;;;;;;;;;5082950;28;20051;-74
2024/02/17 00:08:28;;;;;;;20.98;12.20;;;;;;;;;;5065532;28;20163;-74
2024/02/17 00:10:54;;;;;;;19.17;12.65;;;;;;;;;;5065705;28;20186;-74
2024/02/17 00:13:21;;;;;;;26.55;12.48;;;;;;;;;;5069730;28;20063;-76
2024/02/17 00:15:47;;;;;;;19.92;11.93;;;;;;;;;;5062686;28;20110;-76
2024/02/17 00:18:14;;;;;;;19.10;12.13;;;;;;;;;;5081251;28;20044;-75
2024/02/17 00:20:41;;;;;;;20.58;12.27;;;;;;;;;;5067069;28;20143;-75
2024/02/17 00:23:07;;;;;;;22.80;12.65;;;;;;;;;;5074620;28;20055;-75
2024/02/17 00:25:33;;;;;;;21.60;12.55;;;;;;;;;;5078094;28;20150;-75
2024/02/17 00:28:00;;;;;;;21.92;12.95;;;;;;;;;;5065967;28;20068;-75
2024/02/17 00:30:26;;;;;;;21.60;12.25;;;;;;;;;;5066948;28;20055;-75
2024/02/17 00:32:53;;;;;;;24.02;12.40;;;;;;;;;;5068430;28;20055;-76
2024/02/17 00:35:19;;;;;;;22.13;12.30;;;;;;;;;;5058432;28;20060;-75
2024/02/17 00:37:46;;;;;;;19.63;11.75;;;;;;;;;;5080304;28;20460;-78
2024/02/17 00:40:12;;;;;;;22.42;12.73;;;;;;;;;;5070621;28;20106;-78
2024/02/17 00:42:39;;;;;;;24.75;12.68;;;;;;;;;;5066489;28;20097;-79
2024/02/17 00:45:05;;;;;;;22.80;11.88;;;;;;;;;;5064798;28;20081;-77
2024/02/17 00:47:32;;;;;;;23.67;12.75;;;;;;;;;;5073457;28;20052;-79
2024/02/17 00:49:58;;;;;;;23.35;12.80;;;;;;;;;;5069902;28;20052;-77
2024/02/17 00:52:25;;;;;;;19.83;12.38;;;;;;;;;;5064964;28;20074;-77
2024/02/17 00:54:51;;;;;;;29.23;13.57;;;;;;;;;;5067331;28;20091;-77
2024/02/17 00:57:18;;;;;;;23.38;13.13;;;;;;;;;;5046991;28;20119;-78
2024/02/17 00:59:44;;;;;;;24.30;14.07;;;;;;;;;;5051292;28;20063;-77
2024/02/17 01:02:13;;;;;;;21.80;13.90;;;;;;;;;;5081414;28;20064;-77
2024/02/17 01:04:40;;;;;;;26.48;14.00;;;;;;;;;;5079578;28;20048;-77
2024/02/17 01:07:06;;;;;;;30.50;14.50;;;;;;;;;;5068661;28;20054;-77
2024/02/17 01:09:33;;;;;;;25.08;13.20;;;;;;;;;;5057886;28;20416;-78
2024/02/17 01:11:59;;;;;;;25.23;13.05;;;;;;;;;;5071711;28;20423;-78
2024/02/17 01:14:26;;;;;;;25.60;13.20;;;;;;;;;;5047098;28;20125;-78
2024/02/17 01:16:52;;;;;;;26.25;14.43;;;;;;;;;;5082433;28;20044;-77
2024/02/17 01:19:18;;;;;;;25.55;13.10;;;;;;;;;;5080243;28;20054;-79
2024/02/17 01:21:45;;;;;;;24.73;13.20;;;;;;;;;;5062144;28;20075;-78
2024/02/17 01:24:12;;;;;;;27.00;12.93;;;;;;;;;;5072642;28;20090;-77
2024/02/17 01:26:39;;;;;;;23.40;13.25;;;;;;;;;;5071712;28;20680;-77
2024/02/17 01:29:05;;;;;;;23.10;13.02;;;;;;;;;;5075047;28;20056;-78
2024/02/17 01:31:32;;;;;;;23.90;13.60;;;;;;;;;;5053084;28;20051;-77
2024/02/17 01:33:58;;;;;;;25.33;13.18;;;;;;;;;;5068002;28;20121;-77
2024/02/17 01:36:25;;;;;;;24.65;13.25;;;;;;;;;;5079663;28;20136;-77
2024/02/17 01:38:51;;;;;;;27.00;12.25;;;;;;;;;;5062031;28;20056;-76
2024/02/17 01:41:18;;;;;;;19.80;11.63;;;;;;;;;;5076450;28;20083;-76
2024/02/17 01:43:45;;;;;;;28.45;13.50;;;;;;;;;;5059246;28;20052;-76
2024/02/17 01:46:12;;;;;;;26.08;13.25;;;;;;;;;;5084195;28;20048;-75
2024/02/17 01:48:38;;;;;;;28.55;14.15;;;;;;;;;;5042825;28;20052;-75
2024/02/17 01:51:06;;;;;;;25.38;13.48;;;;;;;;;;5077230;28;20040;-74
2024/02/17 01:53:32;;;;;;;22.38;13.05;;;;;;;;;;5064681;28;20060;-77
2024/02/17 01:55:59;;;;;;;26.95;13.70;;;;;;;;;;5067956;28;20129;-76
2024/02/17 01:58:26;;;;;;;24.30;13.35;;;;;;;;;;5077228;28;20051;-74
2024/02/17 02:00:52;;;;;;;27.42;13.65;;;;;;;;;;5065206;28;20661;-75
2024/02/17 02:03:20;;;;;;;26.48;14.52;;;;;;;;;;5074721;28;20052;-74
2024/02/17 02:05:47;;;;;;;24.83;14.85;;;;;;;;;;5050100;28;20052;-75
2024/02/17 02:08:13;;;;;;;25.13;13.95;;;;;;;;;;5080487;28;20076;-75
2024/02/17 02:10:40;;;;;;;24.27;14.45;;;;;;;;;;5084307;28;20059;-74
2024/02/17 02:13:08;;;;;;;27.27;15.38;;;;;;;;;;5077549;28;20075;-74
2024/02/17 02:15:42;;;;;;;33.28;15.98;;;;;;;;;;5075502;28;20636;-75
2024/02/17 02:18:19;;;;;;;29.42;14.52;;;;;;;;;;5077281;28;20048;-72
2024/02/17 02:20:46;;;;;;;27.20;15.48;;;;;;;;;;5071334;28;20048;-76
2024/02/17 02:23:13;;;;;;;30.02;15.00;;;;;;;;;;5074513;28;20059;-75
2024/02/17 02:25:42;;;;;;;31.75;14.45;;;;;;;;;;5081999;28;20127;-77
2024/02/17 02:28:09;;;;;;;26.77;14.68;;;;;;;;;;5081592;28;20059;-77
2024/02/17 02:30:36;;;;;;;26.92;14.70;;;;;;;;;;5074174;28;20048;-75
2024/02/17 02:33:03;;;;;;;27.02;15.00;;;;;;;;;;5078449;28;20777;-77
2024/02/17 02:35:30;;;;;;;34.08;15.98;;;;;;;;;;5068415;28;20075;-76
2024/02/17 02:37:56;;;;;;;27.10;15.45;;;;;;;;;;5078541;28;20463;-76
2024/02/17 02:40:22;;;;;;;32.80;15.75;;;;;;;;;;5068027;28;20506;-77
2024/02/17 02:42:49;;;;;;;29.67;15.00;;;;;;;;;;5061443;28;20052;-76
2024/02/17 02:45:16;;;;;;;31.17;15.38;;;;;;;;;;5067066;28;20048;-76
2024/02/17 02:47:43;;;;;;;27.67;15.60;;;;;;;;;;5055578;28;20046;-76
2024/02/17 02:50:10;;;;;;;26.58;15.38;;;;;;;;;;5066970;28;20647;-77
2024/02/17 02:52:37;;;;;;;28.08;14.43;;;;;;;;;;5053808;28;20056;-77
2024/02/17 02:55:04;;;;;;;27.73;15.85;;;;;;;;;;5093778;28;20712;-76
2024/02/17 02:57:31;;;;;;;28.42;15.10;;;;;;;;;;5083661;28;20055;-76
2024/02/17 02:59:58;;;;;;;29.33;15.43;;;;;;;;;;5075738;28;20052;-76
2024/02/17 03:02:25;;;;;;;27.30;15.45;;;;;;;;;;5081070;28;20044;-77
2024/02/17 03:04:52;;;;;;;26.17;14.70;;;;;;;;;;5059437;28;20050;-77
2024/02/17 03:07:18;;;;;;;28.42;14.63;;;;;;;;;;5053769;28;20080;-77
2024/02/17 03:09:45;;;;;;;30.00;14.68;;;;;;;;;;5074317;28;20052;-77
2024/02/17 03:12:11;;;;;;;28.52;15.52;;;;;;;;;;5065428;28;20052;-76
2024/02/17 03:14:42;;;;;;;29.63;15.57;;;;;;;;;;5074696;28;20048;-76
2024/02/17 03:17:08;;;;;;;27.23;15.10;;;;;;;;;;5061321;28;20052;-76
2024/02/17 03:19:35;;;;;;;31.33;14.77;;;;;;;;;;5067373;28;20044;-76
2024/02/17 03:22:02;;;;;;;28.00;15.68;;;;;;;;;;5071773;28;20052;-76
2024/02/17 03:24:28;;;;;;;26.80;15.43;;;;;;;;;;5073186;28;20049;-76
2024/02/17 03:26:55;;;;;;;30.80;15.30;;;;;;;;;;5097502;28;20456;-76
2024/02/17 03:29:22;;;;;;;27.23;15.27;;;;;;;;;;5084846;28;20365;-75
2024/02/17 03:31:48;;;;;;;32.05;15.30;;;;;;;;;;5048640;28;21022;-75
2024/02/17 03:34:14;;;;;;;31.65;16.45;;;;;;;;;;5076033;28;20052;-76
2024/02/17 03:36:41;;;;;;;29.15;16.15;;;;;;;;;;5054988;28;20048;-76
2024/02/17 03:39:09;;;;;;;29.30;14.88;;;;;;;;;;5089190;28;20052;-76
2024/02/17 03:41:36;;;;;;;30.48;15.73;;;;;;;;;;5064035;28;20134;-75
2024/02/17 03:44:05;;;;;;;28.90;15.35;;;;;;;;;;5075173;28;20048;-76
2024/02/17 03:46:32;;;;;;;29.50;15.43;;;;;;;;;;5056422;28;20460;-75
2024/02/17 03:48:59;;;;;;;28.90;14.05;;;;;;;;;;5065874;28;20051;-76
2024/02/17 03:51:25;;;;;;;28.50;15.70;;;;;;;;;;5076796;28;20063;-76
2024/02/17 03:53:52;;;;;;;25.55;14.70;;;;;;;;;;5080154;28;20059;-75
2024/02/17 03:56:19;;;;;;;31.48;15.23;;;;;;;;;;5059439;28;20469;-76
2024/02/17 03:58:46;;;;;;;23.05;14.52;;;;;;;;;;5057076;28;20485;-76
2024/02/17 04:01:13;;;;;;;26.52;14.63;;;;;;;;;;5066458;28;20101;-75
2024/02/17 04:03:39;;;;;;;24.58;13.20;;;;;;;;;;5067080;28;20711;-75
2024/02/17 04:06:06;;;;;;;25.83;14.50;;;;;;;;;;5067073;28;20059;-75
2024/02/17 04:08:33;;;;;;;22.90;14.35;;;;;;;;;;5084302;28;20047;-76
2024/02/17 04:11:00;;;;;;;27.95;15.32;;;;;;;;;;5077709;28;20121;-76
2024/02/17 04:13:27;;;;;;;26.25;14.27;;;;;;;;;;5069990;28;20496;-76
2024/02/17 04:15:54;;;;;;;28.73;14.52;;;;;;;;;;5057032;28;20071;-75
2024/02/17 04:18:21;;;;;;;30.05;14.45;;;;;;;;;;5073557;28;20688;-75
2024/02/17 04:20:48;;;;;;;27.10;14.07;;;;;;;;;;5059924;28;20636;-75
2024/02/17 04:23:14;;;;;;;29.00;14.18;;;;;;;;;;5086771;28;20086;-75
2024/02/17 04:25:43;;;;;;;26.33;13.63;;;;;;;;;;5073957;28;20058;-77
2024/02/17 04:28:10;;;;;;;23.92;14.43;;;;;;;;;;5071762;28;20412;-76
2024/02/17 04:30:36;;;;;;;25.95;14.85;;;;;;;;;;5079012;28;20048;-76
2024/02/17 04:33:03;;;;;;;25.77;14.35;;;;;;;;;;5071593;28;20457;-75
2024/02/17 04:35:30;;;;;;;29.83;14.88;;;;;;;;;;5071561;28;20057;-76
2024/02/17 04:37:56;;;;;;;23.90;12.80;;;;;;;;;;5079595;28;20440;-76
2024/02/17 04:40:23;;;;;;;25.90;14.65;;;;;;;;;;5063526;28;20059;-77
2024/02/17 04:42:52;;;;;;;27.30;14.38;;;;;;;;;;5080864;28;20056;-76
2024/02/17 04:45:18;;;;;;;24.90;12.68;;;;;;;;;;5069332;28;20052;-76
2024/02/17 04:47:45;;;;;;;25.55;13.85;;;;;;;;;;5077194;28;20055;-76
2024/02/17 04:50:12;;;;;;;25.20;14.57;;;;;;;;;;5066853;28;20049;-76
2024/02/17 04:52:39;;;;;;;23.15;14.23;;;;;;;;;;5073971;28;20528;-76
2024/02/17 04:55:05;;;;;;;25.80;15.25;;;;;;;;;;5071086;28;20088;-76
2024/02/17 04:57:31;;;;;;;28.42;15.18;;;;;;;;;;5058192;28;20480;-76
2024/02/17 04:59:58;;;;;;;26.60;15.57;;;;;;;;;;5066242;28;20381;-76
2024/02/17 05:02:25;;;;;;;28.95;14.52;;;;;;;;;;5083142;28;20044;-77
2024/02/17 05:04:52;;;;;;;28.92;16.00;;;;;;;;;;5055253;28;20682;-76
2024/02/17 05:07:18;;;;;;;31.48;15.73;;;;;;;;;;5064587;28;20369;-76
2024/02/17 05:09:45;;;;;;;24.80;14.00;;;;;;;;;;5049625;28;20125;-76
2024/02/17 05:12:12;;;;;;;26.85;15.18;;;;;;;;;;5064589;28;20054;-76
2024/02/17 05:14:38;;;;;;;32.45;15.00;;;;;;;;;;5090874;28;20044;-76
2024/02/17 05:17:05;;;;;;;26.08;14.30;;;;;;;;;;5080057;28;21029;-76
2024/02/17 05:19:31;;;;;;;23.10;13.77;;;;;;;;;;5065169;28;20512;-76
2024/02/17 05:21:58;;;;;;;28.33;14.02;;;;;;;;;;5062779;28;20058;-76
2024/02/17 05:24:25;;;;;;;29.65;14.75;;;;;;;;;;5073981;28;20044;-76
2024/02/17 05:26:51;;;;;;;24.63;13.85;;;;;;;;;;5067882;28;20041;-78
2024/02/17 05:29:18;;;;;;;28.48;14.98;;;;;;;;;;5058860;28;20053;-76
2024/02/17 05:31:45;;;;;;;24.35;14.55;;;;;;;;;;5049095;28;20056;-76
2024/02/17 05:34:12;;;;;;;26.20;13.40;;;;;;;;;;5065327;28;20135;-76
2024/02/17 05:36:38;;;;;;;24.33;13.73;;;;;;;;;;5069028;28;20048;-77
2024/02/17 05:39:05;;;;;;;26.27;13.93;;;;;;;;;;5069431;28;20143;-76
2024/02/17 05:41:31;;;;;;;30.30;14.10;;;;;;;;;;5073033;28;20044;-76
2024/02/17 05:43:58;;;;;;;24.25;14.32;;;;;;;;;;5081149;28;20120;-76
2024/02/17 05:46:24;;;;;;;28.27;14.40;;;;;;;;;;5078481;28;20573;-76
2024/02/17 05:48:51;;;;;;;23.08;14.15;;;;;;;;;;5075540;28;20052;-77
2024/02/17 05:51:18;;;;;;;25.17;13.38;;;;;;;;;;5062892;28;20773;-76
2024/02/17 05:53:44;;;;;;;23.45;12.95;;;;;;;;;;5088111;28;20245;-76
2024/02/17 05:56:11;;;;;;;25.92;14.07;;;;;;;;;;5066144;28;20048;-76
2024/02/17 05:58:37;;;;;;;30.98;14.13;;;;;;;;;;5089031;28;20063;-77
2024/02/17 06:01:04;;;;;;;23.98;14.23;;;;;;;;;;5073220;28;20503;-77
2024/02/17 06:03:34;;;;;;;23.20;13.65;;;;;;;;;;5082562;28;20159;-77
2024/02/17 06:06:01;;;;;;;26.33;14.75;;;;;;;;;;5070745;28;20079;-76
2024/02/17 06:08:27;;;;;;;27.80;13.13;;;;;;;;;;5074289;28;20553;-76
2024/02/17 06:10:56;;;;;;;25.90;13.88;;;;;;;;;;5076091;28;20048;-77
2024/02/17 06:13:24;;;;;;;19.45;12.50;;;;;;;;;;5058306;28;20143;-77
2024/02/17 06:15:51;;;;;;;23.85;13.95;;;;;;;;;;5104429;28;20546;-77
2024/02/17 06:21:15;;;;;;;26.50;13.13;;;;;;;;;;5059732;28;20052;-76
2024/02/17 06:23:44;;;;;;;23.23;12.95;;;;;;;;;;5056451;28;20082;-78
2024/02/17 06:26:18;;;;;;;26.80;13.98;;;;;;;;;;5063062;28;20051;-77
2024/02/17 06:28:44;;;;;;;20.40;13.30;;;;;;;;;;5079849;28;20535;-76
2024/02/17 06:31:10;;;;;;;20.08;12.68;;;;;;;;;;5061462;28;21077;-77
2024/02/17 06:33:37;;;;;;;23.50;13.27;;;;;;;;;;5084544;28;20051;-77
2024/02/17 06:36:04;;;;;;;31.45;13.35;;;;;;;;;;5075841;28;20139;-78
2024/02/17 06:38:31;;;;;;;21.55;12.65;;;;;;;;;;5075555;28;20052;-77
2024/02/17 06:40:57;;;;;;;21.05;13.60;;;;;;;;;;5068609;28;20041;-77
2024/02/17 06:43:24;;;;;;;20.42;11.77;;;;;;;;;;5049026;28;20102;-77
2024/02/17 06:45:50;;;;;;;22.05;12.27;;;;;;;;;;5075878;28;20607;-76
2024/02/17 06:48:17;;;;;;;26.80;13.20;;;;;;;;;;5089681;28;20476;-77
2024/02/17 06:50:43;;;;;;;20.73;12.10;;;;;;;;;;5058570;28;20097;-77
2024/02/17 06:53:10;;;;;;;21.48;12.77;;;;;;;;;;5086858;28;20458;-77
2024/02/17 06:55:36;;;;;;;22.83;12.32;;;;;;;;;;5064968;28;20052;-76
2024/02/17 06:58:03;;;;;;;26.60;13.32;;;;;;;;;;5080453;28;20048;-76
2024/02/17 07:00:30;;;;;;;22.38;13.27;;;;;;;;;;5079298;28;20044;-77
2024/02/17 07:02:57;;;;;;;20.70;11.55;;;;;;;;;;5093645;28;20056;-77
2024/02/17 07:05:23;;;;;;;19.05;11.50;;;;;;;;;;5073580;28;20094;-76
2024/02/17 07:07:50;;;;;;;19.48;12.35;;;;;;;;;;5075709;28;20783;-76
2024/02/17 07:10:16;;;;;;;19.58;12.45;;;;;;;;;;5067641;28;20052;-76
2024/02/17 07:12:43;;;;;;;27.98;13.27;;;;;;;;;;5056840;28;20159;-76
2024/02/17 07:15:09;;;;;;;25.88;13.40;;;;;;;;;;5085655;28;20433;-76
2024/02/17 07:17:36;;;;;;;25.77;12.95;;;;;;;;;;5058937;28;20041;-77
2024/02/17 07:20:04;;;;;;;21.60;12.57;;;;;;;;;;5076066;28;20105;-76
2024/02/17 07:22:30;;;;;;;23.35;12.80;;;;;;;;;;5055678;28;20052;-76
2024/02/17 07:24:57;;;;;;;22.90;12.85;;;;;;;;;;5079414;28;20976;-76
2024/02/17 07:27:24;;;;;;;23.00;13.02;;;;;;;;;;5083155;28;20048;-76
2024/02/17 07:29:50;;;;;;;28.02;13.70;;;;;;;;;;5060133;28;20076;-76
2024/02/17 07:32:18;;;;;;;21.80;11.80;;;;;;;;;;5059021;28;20086;-76
2024/02/17 07:34:46;;;;;;;18.85;11.57;;;;;;;;;;5081587;28;20051;-76
2024/02/17 07:37:12;;;;;;;23.73;12.27;;;;;;;;;;5060320;28;20424;-76
2024/02/17 07:39:40;;;;;;;22.30;12.65;;;;;;;;;;5073461;28;20140;-77
2024/02/17 07:42:08;;;;;;;23.10;11.98;;;;;;;;;;5061330;28;20694;-76
2024/02/17 07:44:35;;;;;;;26.27;12.82;;;;;;;;;;5079261;28;20055;-76
2024/02/17 07:47:05;;;;;;;21.23;12.27;;;;;;;;;;5077107;28;20054;-76
2024/02/17 07:49:32;;;;;;;19.15;10.95;;;;;;;;;;5073735;28;20060;-76
2024/02/17 07:51:59;;;;;;;23.02;12.70;;;;;;;;;;5069140;28;20071;-76
2024/02/17 07:54:26;;;;;;;20.38;11.23;;;;;;;;;;5069389;28;20044;-76
2024/02/17 07:56:52;;;;;;;19.67;11.55;;;;;;;;;;5081913;28;20052;-76
2024/02/17 07:59:19;;;;;;;20.88;12.23;;;;;;;;;;5064496;28;20055;-76
2024/02/17 08:01:45;;;;;;;24.77;12.63;;;;;;;;;;5089173;28;20048;-76
2024/02/17 08:04:12;;;;;;;23.98;12.13;;;;;;;;;;5063986;28;20059;-76
2024/02/17 08:06:39;;;;;;;24.83;12.57;;;;;;;;;;5063559;28;20061;-76
2024/02/17 08:09:06;;;;;;;23.10;12.23;;;;;;;;;;5072123;28;20074;-76
2024/02/17 08:11:35;;;;;;;21.13;11.98;;;;;;;;;;5061423;28;20067;-77
2024/02/17 08:14:04;;;;;;;22.50;11.65;;;;;;;;;;5076248;28;20056;-76
2024/02/17 08:16:31;;;;;;;22.20;12.45;;;;;;;;;;5074595;28;20084;-77
2024/02/17 08:18:58;;;;;;;19.92;11.10;;;;;;;;;;5072939;28;20105;-76
2024/02/17 08:21:25;;;;;;;21.55;12.55;;;;;;;;;;5062209;28;20048;-76
2024/02/17 08:23:51;;;;;;;17.63;10.77;;;;;;;;;;5054032;28;20063;-77
2024/02/17 08:26:19;;;;;;;21.02;12.75;;;;;;;;;;5070834;28;20040;-77
2024/02/17 08:28:46;;;;;;;23.27;13.05;;;;;;;;;;5055012;28;20044;-77
2024/02/17 08:31:12;;;;;;;20.52;11.77;;;;;;;;;;5069168;28;20074;-77
2024/02/17 08:33:39;;;;;;;27.50;12.20;;;;;;;;;;5072104;28;20057;-77
2024/02/17 08:36:06;;;;;;;20.20;12.57;;;;;;;;;;5082517;28;20048;-77
2024/02/17 08:38:33;;;;;;;21.35;12.05;;;;;;;;;;5085089;28;20134;-77
2024/02/17 08:41:02;;;;;;;18.48;11.77;;;;;;;;;;5081956;28;20778;-77
2024/02/17 08:43:28;;;;;;;18.63;11.98;;;;;;;;;;5054040;28;20491;-76
2024/02/17 08:45:56;;;;;;;23.98;13.23;;;;;;;;;;5060961;28;20064;-78
2024/02/17 08:48:22;;;;;;;25.25;12.85;;;;;;;;;;5077665;28;20091;-78
2024/02/17 08:50:51;;;;;;;25.83;12.80;;;;;;;;;;5069074;28;20436;-79
2024/02/17 08:53:20;;;;;;;21.13;12.57;;;;;;;;;;5072376;28;20438;-78
2024/02/17 08:55:47;;;;;;;21.67;12.23;;;;;;;;;;5070135;28;20276;-78
2024/02/17 08:58:13;;;;;;;18.85;12.65;;;;;;;;;;5044840;28;20109;-78
2024/02/17 09:00:39;;;;;;;19.70;11.88;;;;;;;;;;5072234;28;20044;-79
2024/02/17 09:03:06;;;;;;;27.35;13.85;;;;;;;;;;5086451;28;20047;-78
2024/02/17 09:05:35;;;;;;;21.70;13.00;;;;;;;;;;5063418;28;20432;-78
2024/02/17 09:08:02;;;;;;;19.80;12.88;;;;;;;;;;5081024;28;20044;-78
2024/02/17 09:10:28;;;;;;;26.73;13.20;;;;;;;;;;5070264;28;20052;-78
2024/02/17 09:12:55;;;;;;;25.50;12.85;;;;;;;;;;5069663;28;20189;-78
2024/02/17 09:15:22;;;;;;;26.73;13.68;;;;;;;;;;5077223;28;20057;-78
2024/02/17 09:17:48;;;;;;;25.85;14.02;;;;;;;;;;5076472;28;20625;-78
2024/02/17 09:20:15;;;;;;;28.33;14.27;;;;;;;;;;5056592;28;20147;-78
2024/02/17 09:22:42;;;;;;;26.67;14.77;;;;;;;;;;5069490;28;20052;-78
2024/02/17 09:25:08;;;;;;;26.85;14.35;;;;;;;;;;5074507;28;20461;-78
2024/02/17 09:27:35;;;;;;;27.40;15.35;;;;;;;;;;5072120;28;20055;-78
2024/02/17 09:30:04;;;;;;;23.80;14.32;;;;;;;;;;5070412;28;20135;-78
2024/02/17 09:32:30;;;;;;;29.80;15.35;;;;;;;;;;5056256;28;20553;-78
2024/02/17 09:34:57;;;;;;;31.55;16.52;;;;;;;;;;5062106;28;20328;-78
2024/02/17 09:37:23;;;;;;;29.73;16.35;;;;;;;;;;5080391;28;20468;-79
2024/02/17 09:39:50;;;;;;;28.70;15.38;;;;;;;;;;5052642;28;20044;-78
2024/02/17 09:42:17;;;;;;;30.30;16.45;;;;;;;;;;5054229;28;20047;-78
2024/02/17 09:44:43;;;;;;;31.60;16.15;;;;;;;;;;5062256;28;20053;-78
2024/02/17 09:47:10;;;;;;;25.00;16.33;;;;;;;;;;5074999;28;20044;-78
2024/02/17 09:49:38;;;;;;;28.60;15.35;;;;;;;;;;5075159;28;20044;-79
2024/02/17 09:52:06;;;;;;;26.45;15.65;;;;;;;;;;5073917;28;20827;-78
2024/02/17 09:54:33;;;;;;;27.50;15.60;;;;;;;;;;5075190;28;20048;-78
2024/02/17 09:57:03;;;;;;;26.35;14.88;;;;;;;;;;5058709;28;20131;-77
2024/02/17 09:59:29;;;;;;;28.58;15.20;;;;;;;;;;5076473;28;20135;-79
2024/02/17 10:01:57;;;;;;;22.15;15.13;;;;;;;;;;5077588;28;20461;-78
2024/02/17 10:04:24;;;;;;;30.70;15.38;;;;;;;;;;5067544;28;20059;-79
2024/02/17 10:06:58;;;;;;;24.83;15.00;;;;;;;;;;5079094;28;20436;-80
2024/02/17 10:09:27;;;;;;;26.42;14.57;;;;;;;;;;5076071;28;20044;-79
2024/02/17 10:11:55;;;;;;;22.67;14.02;;;;;;;;;;5061216;28;20060;-78
2024/02/17 10:14:22;;;;;;;25.00;13.18;;;;;;;;;;5062079;28;20135;-77
2024/02/17 10:16:56;;;;;;;22.55;13.13;;;;;;;;;;5058361;28;20052;-80
2024/02/17 10:19:22;;;;;;;27.80;14.52;;;;;;;;;;5075390;28;20067;-79
2024/02/17 10:21:49;;;;;;;24.58;13.52;;;;;;;;;;5074970;28;20139;-79
2024/02/17 10:24:15;;;;;;;24.55;15.13;;;;;;;;;;5079812;28;20593;-79
2024/02/17 10:26:42;;;;;;;23.65;13.20;;;;;;;;;;5066528;28;20049;-80
2024/02/17 10:29:15;;;;;;;25.92;13.50;;;;;;;;;;5086351;28;20048;-79
2024/02/17 10:31:42;;;;;;;22.13;13.27;;;;;;;;;;5077445;28;20054;-80
2024/02/17 10:34:11;;;;;;;22.92;12.20;;;;;;;;;;5083095;28;20128;-80
2024/02/17 10:36:38;;;;;;;20.58;12.80;;;;;;;;;;5051858;28;20052;-80
2024/02/17 10:39:06;;;;;;;19.55;12.88;;;;;;;;;;5073115;28;20123;-78
2024/02/17 10:41:35;;;;;;;24.67;13.13;;;;;;;;;;5063187;28;20040;-80
2024/02/17 10:44:02;;;;;;;21.60;13.90;;;;;;;;;;5071671;28;20071;-81
2024/02/17 10:46:29;;;;;;;25.17;14.18;;;;;;;;;;5081370;28;20092;-78
2024/02/17 10:49:11;;;;;;;22.20;12.05;;;;;;;;;;5078754;28;20127;-78
2024/02/17 10:51:44;;;;;;;21.95;12.05;;;;;;;;;;5064423;28;20048;-78
2024/02/17 10:54:14;;;;;;;24.90;12.23;;;;;;;;;;5086895;28;20051;-77
2024/02/17 10:56:41;;;;;;;21.25;13.32;;;;;;;;;;5062450;28;20058;-81
2024/02/17 10:59:08;;;;;;;22.27;12.95;;;;;;;;;;5064185;28;20152;-79
2024/02/17 11:01:35;;;;;;;24.80;12.73;;;;;;;;;;5065143;28;20126;-78
2024/02/17 11:04:02;;;;;;;22.60;12.80;;;;;;;;;;5067573;28;20108;-78
2024/02/17 11:06:29;;;;;;;23.23;12.35;;;;;;;;;;5084574;28;20055;-79
2024/02/17 11:08:56;;;;;;;18.65;11.93;;;;;;;;;;5048344;28;20060;-79
2024/02/17 11:11:26;;;;;;;23.38;12.75;;;;;;;;;;5068289;28;20822;-79
2024/02/17 11:13:54;;;;;;;19.15;11.65;;;;;;;;;;5072233;28;20048;-78
2024/02/17 11:16:22;;;;;;;19.00;11.52;;;;;;;;;;5058774;28;20128;-79
2024/02/17 11:18:52;;;;;;;19.80;11.40;;;;;;;;;;5084490;28;20464;-78
2024/02/17 11:21:24;;;;;;;18.23;11.23;;;;;;;;;;5057548;28;20388;-79
2024/02/17 11:23:50;;;;;;;19.10;11.82;;;;;;;;;;5054113;28;21266;-79
2024/02/17 11:26:21;;;;;;;19.38;12.43;;;;;;;;;;5072441;28;20044;-79
2024/02/17 11:29:02;;;;;;;19.45;11.50;;;;;;;;;;5072534;28;20044;-79
2024/02/17 11:31:30;;;;;;;20.77;11.90;;;;;;;;;;5067950;28;20057;-78
2024/02/17 11:34:00;;;;;;;16.63;11.30;;;;;;;;;;5068558;28;20048;-82
2024/02/17 11:36:30;;;;;;;24.20;12.43;;;;;;;;;;5080476;28;20054;-79
2024/02/17 11:38:57;;;;;;;20.48;11.43;;;;;;;;;;5060942;28;20093;-81
2024/02/17 11:41:24;;;;;;;25.27;14.63;;;;;;;;;;5060882;28;20075;-78
2024/02/17 11:43:50;;;;;;;26.58;13.10;;;;;;;;;;5084875;28;20538;-78
2024/02/17 11:46:19;;;;;;;21.80;13.13;;;;;;;;;;5072079;28;20453;-78
2024/02/17 11:48:45;;;;;;;21.65;12.48;;;;;;;;;;5084644;28;20680;-79
2024/02/17 11:51:12;;;;;;;22.60;12.90;;;;;;;;;;5045137;28;20044;-79
2024/02/17 11:53:59;;;;;;;22.58;13.70;;;;;;;;;;5090989;28;20056;-80
2024/02/17 11:56:26;;;;;;;20.50;12.85;;;;;;;;;;5056395;28;20056;-81
2024/02/17 11:58:53;;;;;;;21.70;12.80;;;;;;;;;;5066942;28;20044;-80
2024/02/17 12:01:20;;;;;;;20.10;12.80;;;;;;;;;;5070658;28;20643;-81
2024/02/17 12:03:47;;;;;;;22.08;12.43;;;;;;;;;;5072070;28;20109;-79
2024/02/17 12:06:14;;;;;;;20.10;11.90;;;;;;;;;;5082899;28;20455;-79
2024/02/17 12:08:42;;;;;;;23.60;12.55;;;;;;;;;;5058178;28;20055;-79
2024/02/17 12:11:08;;;;;;;24.65;12.18;;;;;;;;;;5071348;28;20052;-81
2024/02/17 12:13:35;;;;;;;18.15;11.73;;;;;;;;;;5068372;28;20071;-78
2024/02/17 12:16:03;;;;;;;21.35;11.55;;;;;;;;;;5071232;28;20110;-80
2024/02/17 12:18:29;;;;;;;23.02;11.98;;;;;;;;;;5068084;28;20423;-81
2024/02/17 12:20:56;;;;;;;20.70;11.65;;;;;;;;;;5058931;28;20207;-80
2024/02/17 12:23:22;;;;;;;20.67;11.35;;;;;;;;;;5067491;28;20093;-81
2024/02/17 12:25:51;;;;;;;22.15;11.88;;;;;;;;;;5055691;28;20377;-76
2024/02/17 12:28:17;;;;;;;15.52;10.93;;;;;;;;;;5073551;28;20049;-76
2024/02/17 12:30:48;;;;;;;19.65;10.63;;;;;;;;;;5069080;28;20919;-76
2024/02/17 12:33:19;;;;;;;22.83;11.75;;;;;;;;;;5064276;28;20477;-78
2024/02/17 12:35:47;;;;;;;19.42;10.73;;;;;;;;;;5081883;28;20044;-76
2024/02/17 12:38:18;;;;;;;18.05;11.07;;;;;;;;;;5073636;28;20496;-76
2024/02/17 12:40:46;;;;;;;22.17;11.43;;;;;;;;;;5066563;28;20060;-77
2024/02/17 12:43:20;;;;;;;21.85;10.82;;;;;;;;;;5078106;28;21295;-76
2024/02/17 12:45:46;;;;;;;21.75;10.45;;;;;;;;;;5060231;28;20831;-76
2024/02/17 12:48:13;;;;;;;18.98;10.15;;;;;;;;;;5067793;28;20048;-77
2024/02/17 12:50:40;;;;;;;18.95;10.68;;;;;;;;;;5061658;28;20778;-77
2024/02/17 12:53:09;;;;;;;17.65;9.90;;;;;;;;;;5073474;28;20411;-77
2024/02/17 12:55:37;;;;;;;20.83;10.68;;;;;;;;;;5074428;28;20044;-77
2024/02/17 12:58:04;;;;;;;19.75;10.30;;;;;;;;;;5065051;28;20048;-76
2024/02/17 13:00:31;;;;;;;17.05;9.80;;;;;;;;;;5068769;28;20543;-76
2024/02/17 13:02:57;;;;;;;16.08;9.88;;;;;;;;;;5060825;28;20636;-76
2024/02/17 13:05:24;;;;;;;19.88;10.35;;;;;;;;;;5060451;28;20054;-77
2024/02/17 13:07:51;;;;;;;19.17;10.35;;;;;;;;;;5049367;28;20476;-76
2024/02/17 13:10:18;;;;;;;18.88;10.73;;;;;;;;;;5080578;28;20135;-76
2024/02/17 13:12:44;;;;;;;19.88;10.85;;;;;;;;;;5065703;28;20084;-77
2024/02/17 13:15:12;;;;;;;18.23;10.40;;;;;;;;;;5053277;28;20412;-76
2024/02/17 13:17:39;;;;;;;22.90;11.35;;;;;;;;;;5066058;28;20053;-76
2024/02/17 13:20:06;;;;;;;18.65;10.70;;;;;;;;;;5060088;28;20048;-76
2024/02/17 13:22:32;;;;;;;18.55;10.40;;;;;;;;;;5056083;28;20402;-76
2024/02/17 13:24:59;;;;;;;19.42;11.63;;;;;;;;;;5048075;28;20036;-77
2024/02/17 13:27:25;;;;;;;20.40;11.13;;;;;;;;;;5060610;28;20052;-76
2024/02/17 13:29:52;;;;;;;17.85;9.70;;;;;;;;;;5063194;28;20130;-76
2024/02/17 13:32:18;;;;;;;19.88;10.85;;;;;;;;;;5064792;28;20106;-77
2024/02/17 13:34:45;;;;;;;17.98;11.23;;;;;;;;;;5082784;28;20069;-76
2024/02/17 13:37:12;;;;;;;22.63;12.25;;;;;;;;;;5065258;28;20404;-80
2024/02/17 13:39:38;;;;;;;19.92;12.07;;;;;;;;;;5073821;28;20106;-80
2024/02/17 13:42:05;;;;;;;21.27;12.45;;;;;;;;;;5061056;28;20052;-80
2024/02/17 13:44:32;;;;;;;22.60;12.48;;;;;;;;;;5070314;28;20058;-81
2024/02/17 13:46:58;;;;;;;19.77;13.25;;;;;;;;;;5079601;28;20699;-79
2024/02/17 13:49:25;;;;;;;22.33;13.05;;;;;;;;;;5044499;28;20129;-79
2024/02/17 13:51:56;;;;;;;21.02;13.13;;;;;;;;;;5075067;28;20146;-80
2024/02/17 13:54:23;;;;;;;20.15;13.48;;;;;;;;;;5084484;28;20135;-80
2024/02/17 13:56:50;;;;;;;22.27;13.82;;;;;;;;;;5079863;28;20055;-79
2024/02/17 13:59:18;;;;;;;20.55;13.55;;;;;;;;;;5050907;28;20064;-81
2024/02/17 14:01:44;;;;;;;18.58;12.90;;;;;;;;;;5075566;28;20135;-80
2024/02/17 14:04:11;;;;;;;18.95;13.63;;;;;;;;;;5065915;28;20155;-79
2024/02/17 14:06:37;;;;;;;21.70;13.65;;;;;;;;;;5064603;28;20044;-80
2024/02/17 14:09:04;;;;;;;20.75;13.50;;;;;;;;;;5084368;28;20036;-80
2024/02/17 14:11:30;;;;;;;25.58;14.38;;;;;;;;;;5057731;28;20063;-78
2024/02/17 14:14:00;;;;;;;22.30;14.32;;;;;;;;;;5068886;28;20101;-80
2024/02/17 14:16:30;;;;;;;20.25;13.35;;;;;;;;;;5080260;28;20064;-81
2024/02/17 14:18:57;;;;;;;20.23;13.90;;;;;;;;;;5064597;28;20071;-79